sensor_id;sensor_type;location;lat;lon;timestamp;P1;durP1;ratioP1;P2;durP2;ratioP2
20034;SDS011;10178;48.034;9.800;2023-01-30T00:00:29;29.60;;;16.97;;
20034;SDS011;10178;48.034;9.800;2023-01-30T00:02:55;31.00;;;17.33;;
20034;SDS011;10178;48.034;9.800;2023-01-30T00:05:21;34.47;;;18.27;;
20034;SDS011;10178;48.034;9.800;2023-01-30T00:07:46;31.80;;;17.40;;
20034;SDS011;10178;48.034;9.800;2023-01-30T00:10:12;30.13;;;16.70;;
20034;SDS011;10178;48.034;9.800;2023-01-30T00:12:38;31.03;;;16.13;;
20034;SDS011;10178;48.034;9.800;2023-01-30T00:15:05;33.33;;;18.00;;
20034;SDS011;10178;48.034;9.800;2023-01-30T00:17:31;31.40;;;17.03;;
20034;SDS011;10178;48.034;9.800;2023-01-30T00:19:57;32.20;;;17.77;;
20034;SDS011;10178;48.034;9.800;2023-01-30T00:22:22;29.23;;;16.03;;
20034;SDS011;10178;48.034;9.800;2023-01-30T00:24:48;32.77;;;17.90;;
20034;SDS011;10178;48.034;9.800;2023-01-30T00:27:13;32.87;;;17.43;;
20034;SDS011;10178;48.034;9.800;2023-01-30T00:29:39;33.20;;;17.63;;
20034;SDS011;10178;48.034;9.800;2023-01-30T00:32:05;37.27;;;19.37;;
20034;SDS011;10178;48.034;9.800;2023-01-30T00:34:31;35.07;;;19.30;;
20034;SDS011;10178;48.034;9.800;2023-01-30T00:36:57;33.70;;;18.43;;
20034;SDS011;10178;48.034;9.800;2023-01-30T00:39:22;36.03;;;19.27;;
20034;SDS011;10178;48.034;9.800;2023-01-30T00:41:48;39.53;;;19.50;;
20034;SDS011;10178;48.034;9.800;2023-01-30T00:44:32;37.50;;;19.17;;
20034;SDS011;10178;48.034;9.800;2023-01-30T00:47:16;32.80;;;18.03;;
20034;SDS011;10178;48.034;9.800;2023-01-30T00:49:41;35.07;;;18.63;;
20034;SDS011;10178;48.034;9.800;2023-01-30T00:52:07;33.27;;;18.70;;
20034;SDS011;10178;48.034;9.800;2023-01-30T00:54:33;33.57;;;17.57;;
20034;SDS011;10178;48.034;9.800;2023-01-30T00:56:58;32.90;;;17.63;;
20034;SDS011;10178;48.034;9.800;2023-01-30T00:59:25;37.97;;;18.27;;
20034;SDS011;10178;48.034;9.800;2023-01-30T01:01:51;31.67;;;17.67;;
20034;SDS011;10178;48.034;9.800;2023-01-30T01:04:17;34.03;;;17.53;;
20034;SDS011;10178;48.034;9.800;2023-01-30T01:06:43;33.23;;;17.60;;
20034;SDS011;10178;48.034;9.800;2023-01-30T01:09:08;35.90;;;18.83;;
20034;SDS011;10178;48.034;9.800;2023-01-30T01:11:34;33.70;;;18.17;;
20034;SDS011;10178;48.034;9.800;2023-01-30T01:14:01;34.70;;;18.13;;
20034;SDS011;10178;48.034;9.800;2023-01-30T01:16:28;36.40;;;18.20;;
20034;SDS011;10178;48.034;9.800;2023-01-30T01:18:55;33.50;;;17.73;;
20034;SDS011;10178;48.034;9.800;2023-01-30T01:21:21;34.23;;;18.63;;
20034;SDS011;10178;48.034;9.800;2023-01-30T01:23:54;33.07;;;17.60;;
20034;SDS011;10178;48.034;9.800;2023-01-30T01:26:24;33.53;;;18.20;;
20034;SDS011;10178;48.034;9.800;2023-01-30T01:28:53;32.10;;;17.17;;
20034;SDS011;10178;48.034;9.800;2023-01-30T01:31:20;34.57;;;18.37;;
20034;SDS011;10178;48.034;9.800;2023-01-30T01:33:46;35.00;;;18.87;;
20034;SDS011;10178;48.034;9.800;2023-01-30T01:36:11;29.97;;;16.50;;
20034;SDS011;10178;48.034;9.800;2023-01-30T01:38:37;34.37;;;18.00;;
20034;SDS011;10178;48.034;9.800;2023-01-30T01:41:03;31.80;;;18.33;;
20034;SDS011;10178;48.034;9.800;2023-01-30T01:43:37;32.33;;;18.23;;
20034;SDS011;10178;48.034;9.800;2023-01-30T01:46:21;33.80;;;16.57;;
20034;SDS011;10178;48.034;9.800;2023-01-30T01:48:53;32.87;;;17.30;;
20034;SDS011;10178;48.034;9.800;2023-01-30T01:53:53;31.93;;;16.93;;
20034;SDS011;10178;48.034;9.800;2023-01-30T01:56:22;31.27;;;16.97;;
20034;SDS011;10178;48.034;9.800;2023-01-30T01:58:57;33.93;;;18.67;;
20034;SDS011;10178;48.034;9.800;2023-01-30T02:01:30;32.23;;;18.93;;
20034;SDS011;10178;48.034;9.800;2023-01-30T02:03:57;31.67;;;17.53;;
20034;SDS011;10178;48.034;9.800;2023-01-30T02:06:27;36.30;;;18.63;;
20034;SDS011;10178;48.034;9.800;2023-01-30T02:08:55;29.70;;;16.57;;
20034;SDS011;10178;48.034;9.800;2023-01-30T02:11:33;30.03;;;16.70;;
20034;SDS011;10178;48.034;9.800;2023-01-30T02:14:05;34.80;;;18.17;;
20034;SDS011;10178;48.034;9.800;2023-01-30T02:16:32;31.53;;;16.77;;
20034;SDS011;10178;48.034;9.800;2023-01-30T02:18:57;34.27;;;17.20;;
20034;SDS011;10178;48.034;9.800;2023-01-30T02:37:58;31.03;;;17.03;;
20034;SDS011;10178;48.034;9.800;2023-01-30T02:43:30;30.80;;;16.37;;
20034;SDS011;10178;48.034;9.800;2023-01-30T02:48:53;29.63;;;16.87;;
20034;SDS011;10178;48.034;9.800;2023-01-30T02:51:27;27.50;;;16.17;;
20034;SDS011;10178;48.034;9.800;2023-01-30T02:53:55;31.33;;;17.17;;
20034;SDS011;10178;48.034;9.800;2023-01-30T02:56:22;32.87;;;18.10;;
20034;SDS011;10178;48.034;9.800;2023-01-30T02:58:49;33.23;;;18.37;;
20034;SDS011;10178;48.034;9.800;2023-01-30T03:12:36;39.90;;;21.27;;
20034;SDS011;10178;48.034;9.800;2023-01-30T03:15:37;38.30;;;19.57;;
20034;SDS011;10178;48.034;9.800;2023-01-30T03:18:23;44.93;;;22.50;;
20034;SDS011;10178;48.034;9.800;2023-01-30T03:20:49;45.37;;;22.60;;
20034;SDS011;10178;48.034;9.800;2023-01-30T03:23:15;41.93;;;21.87;;
20034;SDS011;10178;48.034;9.800;2023-01-30T03:25:42;40.77;;;20.27;;
20034;SDS011;10178;48.034;9.800;2023-01-30T03:28:09;41.20;;;21.33;;
20034;SDS011;10178;48.034;9.800;2023-01-30T03:30:37;37.03;;;19.73;;
20034;SDS011;10178;48.034;9.800;2023-01-30T03:33:02;42.40;;;20.53;;
20034;SDS011;10178;48.034;9.800;2023-01-30T03:35:28;39.73;;;21.37;;
20034;SDS011;10178;48.034;9.800;2023-01-30T03:37:54;39.13;;;19.80;;
20034;SDS011;10178;48.034;9.800;2023-01-30T03:40:20;35.83;;;18.80;;
20034;SDS011;10178;48.034;9.800;2023-01-30T03:42:45;43.23;;;19.87;;
20034;SDS011;10178;48.034;9.800;2023-01-30T03:45:11;35.37;;;18.27;;
20034;SDS011;10178;48.034;9.800;2023-01-30T03:47:37;32.77;;;18.13;;
20034;SDS011;10178;48.034;9.800;2023-01-30T03:50:02;35.03;;;18.70;;
20034;SDS011;10178;48.034;9.800;2023-01-30T03:52:28;33.27;;;17.40;;
20034;SDS011;10178;48.034;9.800;2023-01-30T03:54:54;37.03;;;18.13;;
20034;SDS011;10178;48.034;9.800;2023-01-30T03:57:19;33.17;;;17.60;;
20034;SDS011;10178;48.034;9.800;2023-01-30T03:59:45;32.03;;;18.17;;
20034;SDS011;10178;48.034;9.800;2023-01-30T04:02:11;31.97;;;17.50;;
20034;SDS011;10178;48.034;9.800;2023-01-30T04:04:37;32.73;;;18.70;;
20034;SDS011;10178;48.034;9.800;2023-01-30T04:07:03;37.53;;;20.43;;
20034;SDS011;10178;48.034;9.800;2023-01-30T04:09:28;37.10;;;19.43;;
20034;SDS011;10178;48.034;9.800;2023-01-30T04:11:54;37.73;;;19.77;;
20034;SDS011;10178;48.034;9.800;2023-01-30T04:14:19;38.67;;;22.23;;
20034;SDS011;10178;48.034;9.800;2023-01-30T04:16:45;38.73;;;21.63;;
20034;SDS011;10178;48.034;9.800;2023-01-30T04:19:11;40.97;;;21.77;;
20034;SDS011;10178;48.034;9.800;2023-01-30T04:21:36;38.37;;;19.83;;
20034;SDS011;10178;48.034;9.800;2023-01-30T04:24:02;36.90;;;19.07;;
20034;SDS011;10178;48.034;9.800;2023-01-30T04:26:28;39.87;;;21.70;;
20034;SDS011;10178;48.034;9.800;2023-01-30T04:28:53;40.43;;;20.47;;
20034;SDS011;10178;48.034;9.800;2023-01-30T04:31:19;38.00;;;20.03;;
20034;SDS011;10178;48.034;9.800;2023-01-30T04:33:44;44.07;;;22.63;;
20034;SDS011;10178;48.034;9.800;2023-01-30T04:36:10;39.57;;;19.57;;
20034;SDS011;10178;48.034;9.800;2023-01-30T04:38:36;39.63;;;22.00;;
20034;SDS011;10178;48.034;9.800;2023-01-30T04:41:02;38.90;;;19.40;;
20034;SDS011;10178;48.034;9.800;2023-01-30T04:43:29;34.97;;;19.07;;
20034;SDS011;10178;48.034;9.800;2023-01-30T04:45:55;33.27;;;17.93;;
20034;SDS011;10178;48.034;9.800;2023-01-30T04:48:21;34.13;;;18.00;;
20034;SDS011;10178;48.034;9.800;2023-01-30T04:50:48;32.90;;;18.10;;
20034;SDS011;10178;48.034;9.800;2023-01-30T04:53:16;33.83;;;18.27;;
20034;SDS011;10178;48.034;9.800;2023-01-30T04:55:42;36.43;;;19.27;;
20034;SDS011;10178;48.034;9.800;2023-01-30T04:58:07;36.20;;;19.73;;
20034;SDS011;10178;48.034;9.800;2023-01-30T05:00:33;34.87;;;18.80;;
20034;SDS011;10178;48.034;9.800;2023-01-30T05:02:59;35.33;;;17.90;;
20034;SDS011;10178;48.034;9.800;2023-01-30T05:05:25;37.43;;;19.60;;
20034;SDS011;10178;48.034;9.800;2023-01-30T05:07:51;30.53;;;17.73;;
20034;SDS011;10178;48.034;9.800;2023-01-30T05:10:17;35.90;;;18.97;;
20034;SDS011;10178;48.034;9.800;2023-01-30T05:12:43;35.57;;;18.90;;
20034;SDS011;10178;48.034;9.800;2023-01-30T05:15:09;36.13;;;18.60;;
20034;SDS011;10178;48.034;9.800;2023-01-30T05:17:36;32.07;;;16.60;;
20034;SDS011;10178;48.034;9.800;2023-01-30T05:20:02;35.47;;;18.70;;
20034;SDS011;10178;48.034;9.800;2023-01-30T05:22:31;34.33;;;18.80;;
20034;SDS011;10178;48.034;9.800;2023-01-30T05:24:56;34.37;;;17.70;;
20034;SDS011;10178;48.034;9.800;2023-01-30T05:27:22;29.50;;;16.77;;
20034;SDS011;10178;48.034;9.800;2023-01-30T05:29:48;31.57;;;17.00;;
20034;SDS011;10178;48.034;9.800;2023-01-30T05:32:14;31.97;;;17.60;;
20034;SDS011;10178;48.034;9.800;2023-01-30T05:34:41;31.33;;;17.17;;
20034;SDS011;10178;48.034;9.800;2023-01-30T05:37:07;29.63;;;16.00;;
20034;SDS011;10178;48.034;9.800;2023-01-30T05:39:33;30.83;;;16.20;;
20034;SDS011;10178;48.034;9.800;2023-01-30T05:41:58;29.60;;;16.23;;
20034;SDS011;10178;48.034;9.800;2023-01-30T05:44:24;32.67;;;17.63;;
20034;SDS011;10178;48.034;9.800;2023-01-30T05:46:49;33.60;;;17.60;;
20034;SDS011;10178;48.034;9.800;2023-01-30T05:49:15;31.53;;;16.70;;
20034;SDS011;10178;48.034;9.800;2023-01-30T05:51:41;33.30;;;16.93;;
20034;SDS011;10178;48.034;9.800;2023-01-30T05:54:06;29.73;;;15.60;;
20034;SDS011;10178;48.034;9.800;2023-01-30T05:56:32;29.47;;;16.47;;
20034;SDS011;10178;48.034;9.800;2023-01-30T05:58:58;31.93;;;17.27;;
20034;SDS011;10178;48.034;9.800;2023-01-30T06:01:25;30.03;;;16.07;;
20034;SDS011;10178;48.034;9.800;2023-01-30T06:03:52;31.17;;;17.10;;
20034;SDS011;10178;48.034;9.800;2023-01-30T06:06:18;28.60;;;16.10;;
20034;SDS011;10178;48.034;9.800;2023-01-30T06:08:44;32.93;;;17.33;;
20034;SDS011;10178;48.034;9.800;2023-01-30T06:11:11;28.53;;;15.70;;
20034;SDS011;10178;48.034;9.800;2023-01-30T06:13:38;28.67;;;15.97;;
20034;SDS011;10178;48.034;9.800;2023-01-30T06:16:08;27.50;;;15.80;;
20034;SDS011;10178;48.034;9.800;2023-01-30T06:18:35;26.73;;;15.67;;
20034;SDS011;10178;48.034;9.800;2023-01-30T06:21:01;31.07;;;16.17;;
20034;SDS011;10178;48.034;9.800;2023-01-30T06:23:27;28.37;;;15.93;;
20034;SDS011;10178;48.034;9.800;2023-01-30T06:25:53;28.13;;;15.80;;
20034;SDS011;10178;48.034;9.800;2023-01-30T06:28:20;28.87;;;15.33;;
20034;SDS011;10178;48.034;9.800;2023-01-30T06:30:46;29.90;;;15.97;;
20034;SDS011;10178;48.034;9.800;2023-01-30T06:33:12;27.97;;;15.70;;
20034;SDS011;10178;48.034;9.800;2023-01-30T06:35:38;28.43;;;15.73;;
20034;SDS011;10178;48.034;9.800;2023-01-30T06:38:05;28.43;;;16.03;;
20034;SDS011;10178;48.034;9.800;2023-01-30T06:40:33;27.00;;;15.20;;
20034;SDS011;10178;48.034;9.800;2023-01-30T06:42:59;26.40;;;15.30;;
20034;SDS011;10178;48.034;9.800;2023-01-30T06:45:24;27.10;;;15.77;;
20034;SDS011;10178;48.034;9.800;2023-01-30T06:47:51;31.23;;;15.73;;
20034;SDS011;10178;48.034;9.800;2023-01-30T06:50:18;29.40;;;16.30;;
20034;SDS011;10178;48.034;9.800;2023-01-30T06:52:46;27.93;;;15.50;;
20034;SDS011;10178;48.034;9.800;2023-01-30T06:55:13;30.30;;;16.40;;
20034;SDS011;10178;48.034;9.800;2023-01-30T06:57:41;27.87;;;15.40;;
20034;SDS011;10178;48.034;9.800;2023-01-30T07:00:08;30.93;;;17.67;;
20034;SDS011;10178;48.034;9.800;2023-01-30T07:02:38;30.00;;;16.27;;
20034;SDS011;10178;48.034;9.800;2023-01-30T07:05:05;31.53;;;16.90;;
20034;SDS011;10178;48.034;9.800;2023-01-30T07:07:32;30.87;;;17.00;;
20034;SDS011;10178;48.034;9.800;2023-01-30T07:09:59;27.20;;;15.97;;
20034;SDS011;10178;48.034;9.800;2023-01-30T07:12:25;31.17;;;17.00;;
20034;SDS011;10178;48.034;9.800;2023-01-30T07:14:51;29.00;;;16.37;;
20034;SDS011;10178;48.034;9.800;2023-01-30T07:17:18;48.93;;;24.23;;
20034;SDS011;10178;48.034;9.800;2023-01-30T07:19:44;38.33;;;19.17;;
20034;SDS011;10178;48.034;9.800;2023-01-30T07:22:10;30.77;;;16.93;;
20034;SDS011;10178;48.034;9.800;2023-01-30T07:24:36;31.33;;;16.60;;
20034;SDS011;10178;48.034;9.800;2023-01-30T07:27:02;37.47;;;19.27;;
20034;SDS011;10178;48.034;9.800;2023-01-30T07:29:28;37.73;;;18.27;;
20034;SDS011;10178;48.034;9.800;2023-01-30T07:31:53;53.40;;;22.50;;
20034;SDS011;10178;48.034;9.800;2023-01-30T07:34:19;41.83;;;19.13;;
20034;SDS011;10178;48.034;9.800;2023-01-30T07:36:45;47.93;;;21.70;;
20034;SDS011;10178;48.034;9.800;2023-01-30T07:39:10;48.50;;;21.50;;
20034;SDS011;10178;48.034;9.800;2023-01-30T07:41:36;45.20;;;20.73;;
20034;SDS011;10178;48.034;9.800;2023-01-30T07:44:01;41.33;;;20.20;;
20034;SDS011;10178;48.034;9.800;2023-01-30T07:46:27;46.23;;;21.37;;
20034;SDS011;10178;48.034;9.800;2023-01-30T07:48:59;38.93;;;19.50;;
20034;SDS011;10178;48.034;9.800;2023-01-30T07:51:25;34.17;;;18.53;;
20034;SDS011;10178;48.034;9.800;2023-01-30T07:53:51;28.03;;;15.70;;
20034;SDS011;10178;48.034;9.800;2023-01-30T07:56:17;29.43;;;16.47;;
20034;SDS011;10178;48.034;9.800;2023-01-30T07:58:44;30.60;;;16.33;;
20034;SDS011;10178;48.034;9.800;2023-01-30T08:01:10;35.03;;;17.17;;
20034;SDS011;10178;48.034;9.800;2023-01-30T08:03:36;26.13;;;16.17;;
20034;SDS011;10178;48.034;9.800;2023-01-30T08:06:01;23.57;;;13.57;;
20034;SDS011;10178;48.034;9.800;2023-01-30T08:08:27;31.13;;;16.37;;
20034;SDS011;10178;48.034;9.800;2023-01-30T08:10:53;25.73;;;14.60;;
20034;SDS011;10178;48.034;9.800;2023-01-30T08:13:18;22.47;;;13.50;;
20034;SDS011;10178;48.034;9.800;2023-01-30T08:15:44;22.53;;;12.93;;
20034;SDS011;10178;48.034;9.800;2023-01-30T08:18:09;23.93;;;13.30;;
20034;SDS011;10178;48.034;9.800;2023-01-30T08:20:35;23.80;;;13.73;;
20034;SDS011;10178;48.034;9.800;2023-01-30T08:23:01;26.40;;;14.43;;
20034;SDS011;10178;48.034;9.800;2023-01-30T08:25:27;23.80;;;13.93;;
20034;SDS011;10178;48.034;9.800;2023-01-30T08:27:53;28.10;;;14.50;;
20034;SDS011;10178;48.034;9.800;2023-01-30T08:30:19;24.23;;;13.70;;
20034;SDS011;10178;48.034;9.800;2023-01-30T08:32:45;25.00;;;13.77;;
20034;SDS011;10178;48.034;9.800;2023-01-30T08:35:11;26.07;;;13.37;;
20034;SDS011;10178;48.034;9.800;2023-01-30T08:37:38;23.57;;;12.87;;
20034;SDS011;10178;48.034;9.800;2023-01-30T08:40:05;23.30;;;12.83;;
20034;SDS011;10178;48.034;9.800;2023-01-30T08:42:31;20.43;;;12.10;;
20034;SDS011;10178;48.034;9.800;2023-01-30T08:44:57;21.77;;;13.00;;
20034;SDS011;10178;48.034;9.800;2023-01-30T08:47:22;25.23;;;12.87;;
20034;SDS011;10178;48.034;9.800;2023-01-30T08:49:48;24.50;;;13.67;;
20034;SDS011;10178;48.034;9.800;2023-01-30T08:52:15;21.60;;;11.87;;
20034;SDS011;10178;48.034;9.800;2023-01-30T08:54:41;22.97;;;12.70;;
20034;SDS011;10178;48.034;9.800;2023-01-30T08:57:06;21.87;;;12.63;;
20034;SDS011;10178;48.034;9.800;2023-01-30T08:59:32;21.40;;;12.00;;
20034;SDS011;10178;48.034;9.800;2023-01-30T09:01:58;22.27;;;13.00;;
20034;SDS011;10178;48.034;9.800;2023-01-30T09:04:23;22.73;;;12.80;;
20034;SDS011;10178;48.034;9.800;2023-01-30T09:06:50;21.10;;;12.57;;
20034;SDS011;10178;48.034;9.800;2023-01-30T09:09:16;18.53;;;11.37;;
20034;SDS011;10178;48.034;9.800;2023-01-30T09:11:41;21.70;;;11.80;;
20034;SDS011;10178;48.034;9.800;2023-01-30T09:14:07;26.37;;;14.23;;
20034;SDS011;10178;48.034;9.800;2023-01-30T09:16:33;21.07;;;11.97;;
20034;SDS011;10178;48.034;9.800;2023-01-30T09:18:58;20.83;;;12.00;;
20034;SDS011;10178;48.034;9.800;2023-01-30T09:21:24;24.03;;;12.53;;
20034;SDS011;10178;48.034;9.800;2023-01-30T09:23:50;23.57;;;13.80;;
20034;SDS011;10178;48.034;9.800;2023-01-30T09:26:16;24.70;;;12.80;;
20034;SDS011;10178;48.034;9.800;2023-01-30T09:28:42;24.20;;;12.77;;
20034;SDS011;10178;48.034;9.800;2023-01-30T09:31:08;24.60;;;13.47;;
20034;SDS011;10178;48.034;9.800;2023-01-30T09:33:33;19.90;;;11.70;;
20034;SDS011;10178;48.034;9.800;2023-01-30T09:35:59;24.33;;;13.70;;
20034;SDS011;10178;48.034;9.800;2023-01-30T09:38:24;21.60;;;12.40;;
20034;SDS011;10178;48.034;9.800;2023-01-30T09:46:46;26.00;;;14.17;;
20034;SDS011;10178;48.034;9.800;2023-01-30T09:52:07;24.20;;;13.07;;
20034;SDS011;10178;48.034;9.800;2023-01-30T09:54:58;22.03;;;12.20;;
20034;SDS011;10178;48.034;9.800;2023-01-30T09:57:42;29.27;;;15.30;;
20034;SDS011;10178;48.034;9.800;2023-01-30T10:00:12;26.47;;;14.33;;
20034;SDS011;10178;48.034;9.800;2023-01-30T10:02:49;21.30;;;12.77;;
20034;SDS011;10178;48.034;9.800;2023-01-30T10:05:34;23.43;;;13.87;;
20034;SDS011;10178;48.034;9.800;2023-01-30T10:11:04;27.07;;;16.73;;
20034;SDS011;10178;48.034;9.800;2023-01-30T10:19:12;23.27;;;13.57;;
20034;SDS011;10178;48.034;9.800;2023-01-30T10:27:16;25.03;;;15.23;;
20034;SDS011;10178;48.034;9.800;2023-01-30T10:29:43;23.43;;;13.07;;
20034;SDS011;10178;48.034;9.800;2023-01-30T10:32:17;24.80;;;14.63;;
20034;SDS011;10178;48.034;9.800;2023-01-30T10:34:51;22.37;;;12.70;;
20034;SDS011;10178;48.034;9.800;2023-01-30T10:37:31;23.87;;;13.40;;
20034;SDS011;10178;48.034;9.800;2023-01-30T10:43:18;23.70;;;13.10;;
20034;SDS011;10178;48.034;9.800;2023-01-30T10:45:56;23.50;;;13.17;;
20034;SDS011;10178;48.034;9.800;2023-01-30T10:54:00;23.53;;;13.83;;
20034;SDS011;10178;48.034;9.800;2023-01-30T10:56:36;23.47;;;13.83;;
20034;SDS011;10178;48.034;9.800;2023-01-30T11:07:23;24.90;;;12.73;;
20034;SDS011;10178;48.034;9.800;2023-01-30T11:09:49;23.93;;;12.07;;
20034;SDS011;10178;48.034;9.800;2023-01-30T11:12:15;21.20;;;12.33;;
20034;SDS011;10178;48.034;9.800;2023-01-30T11:17:19;20.43;;;11.13;;
20034;SDS011;10178;48.034;9.800;2023-01-30T11:19:55;25.17;;;13.73;;
20034;SDS011;10178;48.034;9.800;2023-01-30T11:22:25;23.87;;;13.17;;
20034;SDS011;10178;48.034;9.800;2023-01-30T11:24:59;23.10;;;12.77;;
20034;SDS011;10178;48.034;9.800;2023-01-30T11:27:35;22.47;;;12.37;;
20034;SDS011;10178;48.034;9.800;2023-01-30T11:30:02;22.03;;;11.87;;
20034;SDS011;10178;48.034;9.800;2023-01-30T11:32:30;19.43;;;11.33;;
20034;SDS011;10178;48.034;9.800;2023-01-30T11:37:32;21.57;;;12.40;;
20034;SDS011;10178;48.034;9.800;2023-01-30T11:39:59;19.17;;;12.27;;
20034;SDS011;10178;48.034;9.800;2023-01-30T11:42:57;16.00;;;10.53;;
20034;SDS011;10178;48.034;9.800;2023-01-30T11:45:28;16.73;;;11.20;;
20034;SDS011;10178;48.034;9.800;2023-01-30T11:47:59;21.60;;;12.20;;
20034;SDS011;10178;48.034;9.800;2023-01-30T11:50:33;23.53;;;12.63;;
20034;SDS011;10178;48.034;9.800;2023-01-30T11:53:13;18.97;;;11.07;;
20034;SDS011;10178;48.034;9.800;2023-01-30T11:55:57;22.20;;;13.67;;
20034;SDS011;10178;48.034;9.800;2023-01-30T11:58:29;21.43;;;12.63;;
20034;SDS011;10178;48.034;9.800;2023-01-30T12:00:59;20.70;;;11.73;;
20034;SDS011;10178;48.034;9.800;2023-01-30T12:03:26;21.07;;;12.47;;
20034;SDS011;10178;48.034;9.800;2023-01-30T12:05:53;20.33;;;12.13;;
20034;SDS011;10178;48.034;9.800;2023-01-30T12:10:57;21.13;;;12.03;;
20034;SDS011;10178;48.034;9.800;2023-01-30T12:13:37;20.73;;;12.07;;
20034;SDS011;10178;48.034;9.800;2023-01-30T12:19:00;21.70;;;11.87;;
20034;SDS011;10178;48.034;9.800;2023-01-30T12:22:17;20.27;;;11.37;;
20034;SDS011;10178;48.034;9.800;2023-01-30T12:24:43;19.30;;;11.40;;
20034;SDS011;10178;48.034;9.800;2023-01-30T12:27:19;17.33;;;10.60;;
20034;SDS011;10178;48.034;9.800;2023-01-30T12:32:42;17.23;;;10.70;;
20034;SDS011;10178;48.034;9.800;2023-01-30T12:35:17;20.23;;;11.77;;
20034;SDS011;10178;48.034;9.800;2023-01-30T12:40:28;21.80;;;11.03;;
20034;SDS011;10178;48.034;9.800;2023-01-30T13:06:09;20.40;;;10.40;;
20034;SDS011;10178;48.034;9.800;2023-01-30T13:27:53;16.30;;;10.23;;
20034;SDS011;10178;48.034;9.800;2023-01-30T13:30:22;17.07;;;10.47;;
20034;SDS011;10178;48.034;9.800;2023-01-30T13:32:55;18.90;;;10.47;;
20034;SDS011;10178;48.034;9.800;2023-01-30T13:35:34;19.27;;;10.90;;
20034;SDS011;10178;48.034;9.800;2023-01-30T13:38:04;19.30;;;11.00;;
20034;SDS011;10178;48.034;9.800;2023-01-30T13:40:38;19.17;;;11.43;;
20034;SDS011;10178;48.034;9.800;2023-01-30T13:43:19;19.60;;;11.63;;
20034;SDS011;10178;48.034;9.800;2023-01-30T13:46:01;18.47;;;10.70;;
20034;SDS011;10178;48.034;9.800;2023-01-30T13:54:07;18.47;;;10.53;;
20034;SDS011;10178;48.034;9.800;2023-01-30T13:56:55;15.40;;;8.83;;
20034;SDS011;10178;48.034;9.800;2023-01-30T14:11:31;17.73;;;10.60;;
20034;SDS011;10178;48.034;9.800;2023-01-30T14:14:28;20.53;;;11.63;;
20034;SDS011;10178;48.034;9.800;2023-01-30T14:17:23;25.23;;;14.37;;
20034;SDS011;10178;48.034;9.800;2023-01-30T14:27:50;27.20;;;12.37;;
20034;SDS011;10178;48.034;9.800;2023-01-30T14:38:23;20.77;;;10.50;;
20034;SDS011;10178;48.034;9.800;2023-01-30T14:45:52;18.47;;;10.40;;
20034;SDS011;10178;48.034;9.800;2023-01-30T14:54:04;16.73;;;9.87;;
20034;SDS011;10178;48.034;9.800;2023-01-30T14:59:25;16.10;;;9.20;;
20034;SDS011;10178;48.034;9.800;2023-01-30T15:12:44;14.90;;;9.23;;
20034;SDS011;10178;48.034;9.800;2023-01-30T15:15:18;15.87;;;9.17;;
20034;SDS011;10178;48.034;9.800;2023-01-30T15:20:59;13.43;;;8.40;;
20034;SDS011;10178;48.034;9.800;2023-01-30T15:26:29;17.07;;;9.27;;
20034;SDS011;10178;48.034;9.800;2023-01-30T15:31:53;17.37;;;9.93;;
20034;SDS011;10178;48.034;9.800;2023-01-30T15:34:26;14.20;;;8.57;;
20034;SDS011;10178;48.034;9.800;2023-01-30T15:36:58;14.67;;;8.90;;
20034;SDS011;10178;48.034;9.800;2023-01-30T15:39:24;14.47;;;8.60;;
20034;SDS011;10178;48.034;9.800;2023-01-30T15:41:51;13.50;;;8.30;;
20034;SDS011;10178;48.034;9.800;2023-01-30T15:47:16;13.53;;;8.20;;
20034;SDS011;10178;48.034;9.800;2023-01-30T15:50:16;14.00;;;8.37;;
20034;SDS011;10178;48.034;9.800;2023-01-30T15:52:43;14.80;;;8.87;;
20034;SDS011;10178;48.034;9.800;2023-01-30T15:57:56;15.13;;;8.17;;
20034;SDS011;10178;48.034;9.800;2023-01-30T16:00:26;14.20;;;8.80;;
20034;SDS011;10178;48.034;9.800;2023-01-30T16:02:55;13.03;;;8.17;;
20034;SDS011;10178;48.034;9.800;2023-01-30T16:05:23;13.80;;;8.43;;
20034;SDS011;10178;48.034;9.800;2023-01-30T16:07:51;13.10;;;7.77;;
20034;SDS011;10178;48.034;9.800;2023-01-30T16:10:25;13.87;;;8.50;;
20034;SDS011;10178;48.034;9.800;2023-01-30T16:12:53;13.33;;;7.47;;
20034;SDS011;10178;48.034;9.800;2023-01-30T16:15:24;14.57;;;8.60;;
20034;SDS011;10178;48.034;9.800;2023-01-30T16:20:43;13.10;;;7.93;;
20034;SDS011;10178;48.034;9.800;2023-01-30T16:23:23;11.87;;;7.80;;
20034;SDS011;10178;48.034;9.800;2023-01-30T16:25:57;12.33;;;7.37;;
20034;SDS011;10178;48.034;9.800;2023-01-30T16:28:25;12.73;;;7.10;;
20034;SDS011;10178;48.034;9.800;2023-01-30T16:30:56;11.07;;;7.13;;
20034;SDS011;10178;48.034;9.800;2023-01-30T16:33:32;12.40;;;7.80;;
20034;SDS011;10178;48.034;9.800;2023-01-30T16:36:05;11.53;;;7.00;;
20034;SDS011;10178;48.034;9.800;2023-01-30T16:38:44;11.30;;;7.33;;
20034;SDS011;10178;48.034;9.800;2023-01-30T16:41:32;12.07;;;7.43;;
20034;SDS011;10178;48.034;9.800;2023-01-30T16:46:46;11.97;;;8.03;;
20034;SDS011;10178;48.034;9.800;2023-01-30T16:50:00;11.97;;;7.80;;
20034;SDS011;10178;48.034;9.800;2023-01-30T16:54:27;12.27;;;7.50;;
20034;SDS011;10178;48.034;9.800;2023-01-30T16:56:55;11.63;;;7.30;;
20034;SDS011;10178;48.034;9.800;2023-01-30T16:59:29;11.90;;;7.13;;
20034;SDS011;10178;48.034;9.800;2023-01-30T17:01:56;12.53;;;7.70;;
20034;SDS011;10178;48.034;9.800;2023-01-30T17:04:23;11.63;;;6.73;;
20034;SDS011;10178;48.034;9.800;2023-01-30T17:07:02;10.07;;;6.60;;
20034;SDS011;10178;48.034;9.800;2023-01-30T17:12:00;11.23;;;7.20;;
20034;SDS011;10178;48.034;9.800;2023-01-30T17:14:46;13.03;;;7.03;;
20034;SDS011;10178;48.034;9.800;2023-01-30T17:17:11;15.23;;;7.20;;
20034;SDS011;10178;48.034;9.800;2023-01-30T17:19:38;10.70;;;6.63;;
20034;SDS011;10178;48.034;9.800;2023-01-30T17:22:05;10.50;;;6.30;;
20034;SDS011;10178;48.034;9.800;2023-01-30T17:24:44;10.13;;;6.20;;
20034;SDS011;10178;48.034;9.800;2023-01-30T17:27:10;8.97;;;6.10;;
20034;SDS011;10178;48.034;9.800;2023-01-30T17:29:35;9.67;;;6.17;;
20034;SDS011;10178;48.034;9.800;2023-01-30T17:32:04;11.40;;;6.90;;
20034;SDS011;10178;48.034;9.800;2023-01-30T17:34:35;10.00;;;6.47;;
20034;SDS011;10178;48.034;9.800;2023-01-30T17:37:04;12.20;;;7.50;;
20034;SDS011;10178;48.034;9.800;2023-01-30T17:39:30;8.93;;;6.07;;
20034;SDS011;10178;48.034;9.800;2023-01-30T17:41:57;11.07;;;6.43;;
20034;SDS011;10178;48.034;9.800;2023-01-30T17:44:22;9.53;;;6.27;;
20034;SDS011;10178;48.034;9.800;2023-01-30T17:46:48;10.83;;;6.47;;
20034;SDS011;10178;48.034;9.800;2023-01-30T17:49:18;11.13;;;7.07;;
20034;SDS011;10178;48.034;9.800;2023-01-30T17:51:46;13.37;;;8.23;;
20034;SDS011;10178;48.034;9.800;2023-01-30T17:54:12;27.33;;;14.17;;
20034;SDS011;10178;48.034;9.800;2023-01-30T17:56:40;51.37;;;29.67;;
20034;SDS011;10178;48.034;9.800;2023-01-30T17:59:12;78.43;;;42.87;;
20034;SDS011;10178;48.034;9.800;2023-01-30T18:01:43;28.77;;;15.93;;
20034;SDS011;10178;48.034;9.800;2023-01-30T18:04:13;73.30;;;37.10;;
20034;SDS011;10178;48.034;9.800;2023-01-30T18:06:40;28.70;;;15.47;;
20034;SDS011;10178;48.034;9.800;2023-01-30T18:09:15;27.43;;;15.13;;
20034;SDS011;10178;48.034;9.800;2023-01-30T18:11:44;20.70;;;13.20;;